Time;durP1;ratioP1;P1;durP2;ratioP2;P2;SDS_P1;SDS_P2;PMS_P1;PMS_P2;Temp;Humidity;BMP_temperature;BMP_pressure;BME280_temperature;BME280_humidity;BME280_pressure;Samples;Min_cycle;Max_cycle;Signal;HPM_P1;HPM_P2
2023/07/06 00:01:42;;;;;;;7.18;3.20;;;;;;;;;;5091280;28;20035;-65
2023/07/06 00:04:10;;;;;;;8.50;3.40;;;;;;;;;;5083878;28;20026;-68
2023/07/06 00:06:36;;;;;;;6.68;3.50;;;;;;;;;;5090796;28;20261;-67
2023/07/06 00:09:02;;;;;;;6.25;3.10;;;;;;;;;;5087462;28;20023;-67
2023/07/06 00:11:35;;;;;;;6.35;3.03;;;;;;;;;;5091985;28;20019;-68
2023/07/06 00:14:01;;;;;;;6.85;3.08;;;;;;;;;;5087380;28;20020;-67
2023/07/06 00:16:26;;;;;;;7.72;2.95;;;;;;;;;;5086139;28;20047;-67
2023/07/06 00:18:52;;;;;;;7.07;3.00;;;;;;;;;;5084221;28;20020;-65
2023/07/06 00:21:18;;;;;;;5.53;3.10;;;;;;;;;;5084968;28;20027;-66
2023/07/06 00:23:43;;;;;;;5.90;2.88;;;;;;;;;;5089172;28;20307;-67
2023/07/06 00:26:11;;;;;;;8.57;3.13;;;;;;;;;;5088196;28;20028;-66
2023/07/06 00:28:39;;;;;;;6.20;3.33;;;;;;;;;;5088004;28;20077;-66
2023/07/06 00:31:10;;;;;;;6.32;3.28;;;;;;;;;;5093017;28;20027;-67
2023/07/06 00:33:36;;;;;;;7.70;3.85;;;;;;;;;;5090851;28;20471;-67
2023/07/06 00:36:03;;;;;;;6.95;3.40;;;;;;;;;;5094505;28;21562;-66
2023/07/06 00:38:29;;;;;;;6.63;3.13;;;;;;;;;;5090316;28;20022;-67
2023/07/06 00:40:58;;;;;;;7.18;3.33;;;;;;;;;;5096391;28;20031;-67
2023/07/06 00:43:25;;;;;;;7.50;3.38;;;;;;;;;;5085601;28;20730;-67
2023/07/06 00:45:51;;;;;;;9.98;3.40;;;;;;;;;;5087638;28;20039;-66
2023/07/06 00:48:23;;;;;;;6.93;3.30;;;;;;;;;;5086378;28;20028;-67
2023/07/06 00:50:51;;;;;;;6.35;3.17;;;;;;;;;;5093341;28;20663;-69
2023/07/06 00:53:16;;;;;;;6.45;3.08;;;;;;;;;;5093682;28;20528;-68
2023/07/06 00:55:42;;;;;;;7.38;3.30;;;;;;;;;;5087797;28;20020;-68
2023/07/06 00:58:30;;;;;;;6.47;3.10;;;;;;;;;;5104390;27;20024;-66
2023/07/06 01:00:58;;;;;;;6.75;3.10;;;;;;;;;;5084101;28;20081;-67
2023/07/06 01:03:23;;;;;;;6.43;3.20;;;;;;;;;;5095677;28;20937;-66
2023/07/06 01:05:51;;;;;;;8.30;3.15;;;;;;;;;;5090307;28;20023;-66
2023/07/06 01:08:19;;;;;;;7.53;3.65;;;;;;;;;;5085887;28;20059;-68
2023/07/06 01:10:45;;;;;;;7.68;3.25;;;;;;;;;;5082648;28;20039;-67
2023/07/06 01:13:10;;;;;;;7.57;3.40;;;;;;;;;;5090277;28;20030;-67
2023/07/06 01:15:40;;;;;;;5.70;3.00;;;;;;;;;;5094362;28;20050;-67
2023/07/06 01:18:22;;;;;;;5.88;3.15;;;;;;;;;;5084080;28;20428;-66
2023/07/06 01:20:56;;;;;;;7.03;3.33;;;;;;;;;;5089932;28;20026;-66
2023/07/06 01:23:21;;;;;;;6.07;3.00;;;;;;;;;;5084607;28;20024;-67
2023/07/06 01:25:55;;;;;;;6.30;3.20;;;;;;;;;;5091423;28;20047;-68
2023/07/06 01:28:35;;;;;;;5.63;3.00;;;;;;;;;;5091257;28;20319;-68
2023/07/06 01:31:16;;;;;;;7.13;3.25;;;;;;;;;;5090382;28;20032;-66
2023/07/06 01:33:41;;;;;;;6.35;3.15;;;;;;;;;;5093058;28;20057;-67
2023/07/06 01:36:18;;;;;;;6.78;2.95;;;;;;;;;;5088006;28;20064;-67
2023/07/06 01:38:45;;;;;;;6.35;2.95;;;;;;;;;;5085005;28;20176;-67
2023/07/06 01:41:10;;;;;;;7.38;3.20;;;;;;;;;;5086245;28;20165;-67
2023/07/06 01:43:36;;;;;;;6.40;2.87;;;;;;;;;;5096989;28;20839;-67
2023/07/06 01:46:02;;;;;;;6.22;3.00;;;;;;;;;;5085413;28;20039;-68
2023/07/06 01:48:28;;;;;;;5.80;2.80;;;;;;;;;;5086929;28;20046;-69
2023/07/06 01:50:54;;;;;;;5.88;2.90;;;;;;;;;;5090291;28;20080;-68
2023/07/06 01:53:38;;;;;;;5.37;2.73;;;;;;;;;;5091784;28;20020;-68
2023/07/06 01:56:04;;;;;;;7.43;3.35;;;;;;;;;;5084979;28;20126;-68
2023/07/06 01:58:43;;;;;;;7.13;2.83;;;;;;;;;;5086792;28;20114;-65
2023/07/06 02:01:11;;;;;;;6.50;2.90;;;;;;;;;;5089610;28;20473;-63
2023/07/06 02:03:38;;;;;;;7.95;2.80;;;;;;;;;;5084381;28;20139;-68
2023/07/06 02:06:06;;;;;;;5.15;2.78;;;;;;;;;;5089772;28;20031;-65
2023/07/06 02:08:32;;;;;;;7.03;2.50;;;;;;;;;;5090786;28;20386;-65
2023/07/06 02:11:01;;;;;;;6.53;2.67;;;;;;;;;;5091603;28;20032;-68
2023/07/06 02:13:26;;;;;;;6.13;2.63;;;;;;;;;;5089869;28;20075;-69
2023/07/06 02:15:52;;;;;;;6.43;2.60;;;;;;;;;;5092291;28;20027;-67
2023/07/06 02:18:17;;;;;;;9.80;2.80;;;;;;;;;;5087892;28;20100;-68
2023/07/06 02:20:42;;;;;;;6.00;2.70;;;;;;;;;;5106473;27;20698;-66
2023/07/06 02:23:08;;;;;;;5.30;3.00;;;;;;;;;;5094154;28;20384;-68
2023/07/06 02:25:35;;;;;;;7.70;2.80;;;;;;;;;;5082313;28;20273;-66
2023/07/06 02:28:00;;;;;;;6.03;2.83;;;;;;;;;;5087787;28;20038;-68
2023/07/06 02:30:26;;;;;;;5.93;2.57;;;;;;;;;;5089297;28;20744;-68
2023/07/06 02:32:52;;;;;;;7.60;2.70;;;;;;;;;;5086836;28;20024;-68
2023/07/06 02:35:17;;;;;;;5.88;3.17;;;;;;;;;;5087807;28;20318;-68
2023/07/06 02:37:43;;;;;;;6.90;2.97;;;;;;;;;;5090270;28;20035;-68
2023/07/06 02:40:09;;;;;;;6.88;2.85;;;;;;;;;;5085333;28;20266;-68
2023/07/06 02:42:37;;;;;;;6.13;2.75;;;;;;;;;;5083054;28;20035;-66
2023/07/06 02:45:04;;;;;;;6.43;2.88;;;;;;;;;;5089472;28;20497;-68
2023/07/06 02:47:29;;;;;;;7.88;3.38;;;;;;;;;;5087501;28;20043;-65
2023/07/06 02:49:55;;;;;;;6.43;2.70;;;;;;;;;;5093760;28;20019;-68
2023/07/06 02:52:20;;;;;;;5.78;2.80;;;;;;;;;;5091704;28;20186;-68
2023/07/06 02:54:47;;;;;;;6.45;2.70;;;;;;;;;;5090442;28;20050;-67
2023/07/06 02:57:12;;;;;;;6.13;2.35;;;;;;;;;;5094992;28;20023;-65
2023/07/06 02:59:37;;;;;;;5.25;2.47;;;;;;;;;;5094171;28;20038;-68
2023/07/06 03:02:08;;;;;;;5.75;2.63;;;;;;;;;;5089747;28;20024;-69
2023/07/06 03:04:33;;;;;;;6.55;2.75;;;;;;;;;;5097445;28;20015;-70
2023/07/06 03:07:01;;;;;;;5.03;2.58;;;;;;;;;;5086704;28;20028;-64
2023/07/06 03:09:29;;;;;;;6.93;2.70;;;;;;;;;;5093444;28;20027;-67
2023/07/06 03:11:54;;;;;;;7.05;2.85;;;;;;;;;;5095632;28;20023;-68
2023/07/06 03:14:24;;;;;;;6.30;2.80;;;;;;;;;;5081020;28;20449;-66
2023/07/06 03:16:53;;;;;;;8.60;2.85;;;;;;;;;;5096205;28;20048;-67
2023/07/06 03:19:19;;;;;;;9.25;2.58;;;;;;;;;;5091065;28;20031;-67
2023/07/06 03:21:44;;;;;;;5.18;2.60;;;;;;;;;;5091109;28;20443;-68
2023/07/06 03:24:09;;;;;;;5.90;2.70;;;;;;;;;;5082418;28;20028;-67
2023/07/06 03:26:36;;;;;;;5.88;2.50;;;;;;;;;;5088363;28;20279;-67
2023/07/06 03:29:03;;;;;;;6.72;2.70;;;;;;;;;;5092413;28;20026;-68
2023/07/06 03:31:32;;;;;;;5.18;2.50;;;;;;;;;;5088746;28;20023;-67
2023/07/06 03:33:57;;;;;;;6.78;2.85;;;;;;;;;;5088914;28;20023;-67
2023/07/06 03:36:23;;;;;;;6.40;2.90;;;;;;;;;;5085050;28;20031;-67
2023/07/06 03:38:49;;;;;;;6.57;2.60;;;;;;;;;;5087462;28;20035;-68
2023/07/06 03:41:16;;;;;;;6.00;2.72;;;;;;;;;;5087235;28;20715;-68
2023/07/06 03:43:42;;;;;;;6.30;2.58;;;;;;;;;;5094663;28;20160;-69
2023/07/06 03:46:07;;;;;;;7.17;2.73;;;;;;;;;;5087304;28;20464;-68
2023/07/06 03:48:34;;;;;;;7.93;2.80;;;;;;;;;;5098568;28;20356;-67
2023/07/06 03:51:03;;;;;;;5.05;2.45;;;;;;;;;;5089439;28;20039;-68
2023/07/06 03:53:35;;;;;;;7.00;2.80;;;;;;;;;;5088520;28;20026;-68
2023/07/06 03:56:01;;;;;;;5.60;2.70;;;;;;;;;;5092313;28;20023;-68
2023/07/06 03:58:26;;;;;;;4.63;2.20;;;;;;;;;;5091426;28;20532;-68
2023/07/06 04:00:51;;;;;;;5.37;2.40;;;;;;;;;;5094259;28;20024;-68
2023/07/06 04:03:16;;;;;;;5.43;2.23;;;;;;;;;;5087967;28;20051;-68
2023/07/06 04:05:47;;;;;;;5.07;2.30;;;;;;;;;;5093248;28;20596;-66
2023/07/06 04:08:16;;;;;;;4.88;2.25;;;;;;;;;;5086362;28;20044;-67
2023/07/06 04:10:41;;;;;;;6.57;2.38;;;;;;;;;;5087040;28;20039;-67
2023/07/06 04:13:08;;;;;;;5.65;2.35;;;;;;;;;;5088490;28;20461;-67
2023/07/06 04:15:34;;;;;;;5.32;2.15;;;;;;;;;;5091320;28;20869;-67
2023/07/06 04:18:03;;;;;;;5.55;2.30;;;;;;;;;;5085359;28;20471;-68
2023/07/06 04:20:29;;;;;;;4.95;2.13;;;;;;;;;;5094463;28;20138;-67
2023/07/06 04:22:57;;;;;;;5.60;2.40;;;;;;;;;;5089976;28;20031;-69
2023/07/06 04:25:29;;;;;;;4.82;1.98;;;;;;;;;;5092636;28;20016;-67
2023/07/06 04:27:54;;;;;;;6.88;2.50;;;;;;;;;;5092185;28;20570;-67
2023/07/06 04:30:20;;;;;;;6.07;2.37;;;;;;;;;;5090648;28;20053;-67
2023/07/06 04:32:48;;;;;;;5.80;2.33;;;;;;;;;;5096693;28;20261;-67
2023/07/06 04:35:14;;;;;;;5.37;2.10;;;;;;;;;;5087430;28;20015;-68
2023/07/06 04:37:41;;;;;;;6.22;2.20;;;;;;;;;;5096565;28;20019;-67
2023/07/06 04:40:13;;;;;;;6.50;2.22;;;;;;;;;;5084581;28;20019;-68
2023/07/06 04:42:41;;;;;;;5.93;2.47;;;;;;;;;;5093550;28;20085;-67
2023/07/06 04:45:09;;;;;;;6.77;2.20;;;;;;;;;;5090330;28;20062;-67
2023/07/06 04:47:35;;;;;;;6.07;2.30;;;;;;;;;;5090801;28;20758;-68
2023/07/06 04:50:01;;;;;;;4.70;2.30;;;;;;;;;;5096549;28;20072;-67
2023/07/06 04:52:26;;;;;;;5.25;2.40;;;;;;;;;;5085835;28;20008;-68
2023/07/06 04:54:51;;;;;;;5.13;2.20;;;;;;;;;;5087654;28;20015;-65
2023/07/06 04:57:19;;;;;;;7.37;2.20;;;;;;;;;;5085371;28;20261;-68
2023/07/06 04:59:45;;;;;;;6.95;2.30;;;;;;;;;;5082588;28;20823;-66
2023/07/06 05:02:10;;;;;;;5.88;2.10;;;;;;;;;;5090094;27;20605;-68
2023/07/06 05:04:42;;;;;;;5.78;2.45;;;;;;;;;;5083144;28;20028;-66
2023/07/06 05:07:07;;;;;;;8.88;2.67;;;;;;;;;;5086319;28;20024;-66
2023/07/06 05:09:32;;;;;;;5.30;2.30;;;;;;;;;;5083444;28;20105;-67
2023/07/06 05:11:58;;;;;;;7.68;2.53;;;;;;;;;;5090725;28;20126;-66
2023/07/06 05:14:23;;;;;;;5.40;2.38;;;;;;;;;;5083412;28;20066;-68
2023/07/06 05:16:48;;;;;;;6.15;2.70;;;;;;;;;;5090160;28;20163;-69
2023/07/06 05:19:15;;;;;;;5.00;2.17;;;;;;;;;;5081168;28;20143;-68
2023/07/06 05:21:40;;;;;;;5.18;2.40;;;;;;;;;;5090255;28;20098;-64
2023/07/06 05:24:06;;;;;;;8.23;2.60;;;;;;;;;;5080253;28;20947;-68
2023/07/06 05:26:31;;;;;;;5.37;2.50;;;;;;;;;;5082516;28;20491;-67
2023/07/06 05:28:59;;;;;;;6.50;2.93;;;;;;;;;;5085003;28;20273;-68
2023/07/06 05:31:25;;;;;;;5.55;2.45;;;;;;;;;;5089634;28;20258;-68
2023/07/06 05:33:50;;;;;;;6.68;2.20;;;;;;;;;;5085118;28;20020;-68
2023/07/06 05:36:16;;;;;;;7.07;2.58;;;;;;;;;;5083264;28;20107;-66
2023/07/06 05:38:42;;;;;;;7.05;2.50;;;;;;;;;;5085813;28;20015;-67
2023/07/06 05:41:07;;;;;;;6.33;2.27;;;;;;;;;;5089374;28;20030;-68
2023/07/06 05:43:35;;;;;;;5.47;2.10;;;;;;;;;;5091380;28;20069;-68
2023/07/06 05:46:00;;;;;;;4.90;2.17;;;;;;;;;;5086964;28;20157;-69
2023/07/06 05:48:29;;;;;;;5.57;2.47;;;;;;;;;;5087726;28;20028;-67
2023/07/06 05:50:54;;;;;;;6.30;2.33;;;;;;;;;;5085216;28;20826;-68
2023/07/06 05:53:19;;;;;;;6.70;2.20;;;;;;;;;;5081946;28;20017;-65
2023/07/06 05:55:44;;;;;;;7.10;2.70;;;;;;;;;;5089912;28;20024;-66
2023/07/06 05:58:13;;;;;;;5.37;2.50;;;;;;;;;;5088119;28;20201;-66
2023/07/06 06:00:59;;;;;;;6.93;2.20;;;;;;;;;;5080275;28;20296;-67
2023/07/06 06:03:27;;;;;;;7.03;2.50;;;;;;;;;;5083178;28;20075;-67
2023/07/06 06:05:53;;;;;;;5.60;2.25;;;;;;;;;;5082724;28;20019;-64
2023/07/06 06:08:18;;;;;;;5.75;2.40;;;;;;;;;;5084879;28;20032;-67
2023/07/06 06:10:48;;;;;;;6.30;2.30;;;;;;;;;;5086287;28;20024;-66
2023/07/06 06:13:16;;;;;;;6.10;2.22;;;;;;;;;;5092572;28;20016;-66
2023/07/06 06:15:41;;;;;;;7.55;2.45;;;;;;;;;;5085117;28;20070;-64
2023/07/06 06:18:06;;;;;;;6.15;2.50;;;;;;;;;;5086293;28;20730;-64
2023/07/06 06:20:32;;;;;;;8.60;2.20;;;;;;;;;;5085286;28;20523;-65
2023/07/06 06:23:00;;;;;;;7.47;2.25;;;;;;;;;;5088161;28;20026;-66
2023/07/06 06:25:25;;;;;;;5.85;2.35;;;;;;;;;;5087899;28;20567;-68
2023/07/06 06:27:53;;;;;;;8.07;2.40;;;;;;;;;;5085077;28;20774;-66
2023/07/06 06:30:21;;;;;;;5.10;2.22;;;;;;;;;;5077807;28;20039;-67
2023/07/06 06:32:46;;;;;;;6.25;2.20;;;;;;;;;;5079163;28;20047;-66
2023/07/06 06:35:25;;;;;;;6.63;2.63;;;;;;;;;;5090624;28;20159;-68
2023/07/06 06:37:50;;;;;;;5.50;2.15;;;;;;;;;;5083993;28;20053;-66
2023/07/06 06:40:16;;;;;;;5.50;2.28;;;;;;;;;;5080324;28;20031;-67
2023/07/06 06:42:43;;;;;;;5.85;2.38;;;;;;;;;;5085141;28;20051;-66
2023/07/06 06:45:08;;;;;;;5.40;2.00;;;;;;;;;;5087178;28;20069;-68
2023/07/06 06:47:36;;;;;;;5.28;1.95;;;;;;;;;;5090545;28;20024;-66
2023/07/06 06:50:01;;;;;;;7.00;2.30;;;;;;;;;;5081708;28;20031;-67
2023/07/06 06:52:27;;;;;;;6.53;2.20;;;;;;;;;;5090557;28;20012;-68
2023/07/06 06:54:52;;;;;;;8.17;2.60;;;;;;;;;;5081361;28;20273;-65
2023/07/06 06:57:21;;;;;;;6.10;2.15;;;;;;;;;;5079028;28;20274;-69
2023/07/06 06:59:47;;;;;;;7.20;2.35;;;;;;;;;;5081974;28;20042;-68
2023/07/06 07:02:12;;;;;;;5.22;2.13;;;;;;;;;;5084004;28;20126;-68
2023/07/06 07:04:38;;;;;;;5.13;2.03;;;;;;;;;;5090946;28;20096;-67
2023/07/06 07:07:04;;;;;;;5.07;2.28;;;;;;;;;;5082564;28;20760;-66
2023/07/06 07:09:29;;;;;;;6.30;2.40;;;;;;;;;;5091571;28;20076;-63
2023/07/06 07:11:54;;;;;;;5.13;2.00;;;;;;;;;;5087965;28;20364;-68
2023/07/06 07:14:20;;;;;;;5.55;2.40;;;;;;;;;;5080546;28;20091;-66
2023/07/06 07:16:45;;;;;;;5.78;2.28;;;;;;;;;;5082979;28;20035;-68
2023/07/06 07:19:13;;;;;;;5.78;2.70;;;;;;;;;;5086349;28;20032;-66
2023/07/06 07:21:38;;;;;;;5.88;2.75;;;;;;;;;;5074751;28;20077;-65
2023/07/06 07:24:04;;;;;;;5.82;3.17;;;;;;;;;;5091342;28;20019;-64
2023/07/06 07:26:30;;;;;;;8.57;4.15;;;;;;;;;;5086821;28;20020;-67
2023/07/06 07:28:55;;;;;;;8.20;3.70;;;;;;;;;;5085690;28;20881;-68
2023/07/06 07:31:22;;;;;;;6.03;3.30;;;;;;;;;;5087462;28;20031;-68
2023/07/06 07:33:50;;;;;;;8.43;3.10;;;;;;;;;;5079357;28;20726;-68
2023/07/06 07:36:19;;;;;;;5.97;2.92;;;;;;;;;;5084059;28;20098;-62
2023/07/06 07:38:45;;;;;;;6.17;2.93;;;;;;;;;;5089961;28;20023;-67
2023/07/06 07:41:10;;;;;;;5.75;2.60;;;;;;;;;;5087302;28;20024;-67
2023/07/06 07:43:41;;;;;;;5.03;2.33;;;;;;;;;;5091162;28;20012;-68
2023/07/06 07:46:08;;;;;;;7.32;2.80;;;;;;;;;;5090142;28;20048;-65
2023/07/06 07:48:38;;;;;;;5.97;2.70;;;;;;;;;;5080473;28;20466;-68
2023/07/06 07:51:04;;;;;;;5.72;2.72;;;;;;;;;;5090075;28;20077;-64
2023/07/06 07:53:31;;;;;;;5.43;2.25;;;;;;;;;;5090370;28;20150;-67
2023/07/06 07:55:59;;;;;;;6.90;2.30;;;;;;;;;;5086418;27;20020;-64
2023/07/06 07:58:24;;;;;;;4.85;2.20;;;;;;;;;;5089890;28;20027;-68
2023/07/06 08:00:50;;;;;;;6.32;2.17;;;;;;;;;;5086399;28;20076;-68
2023/07/06 08:03:15;;;;;;;4.72;2.25;;;;;;;;;;5093638;28;20088;-64
2023/07/06 08:05:41;;;;;;;5.95;2.40;;;;;;;;;;5084815;28;20111;-69
2023/07/06 08:08:09;;;;;;;6.00;2.38;;;;;;;;;;5092361;28;20114;-67
2023/07/06 08:10:35;;;;;;;6.15;2.25;;;;;;;;;;5078704;28;20019;-66
2023/07/06 08:13:01;;;;;;;6.43;2.38;;;;;;;;;;5091079;28;20019;-62
2023/07/06 08:15:27;;;;;;;5.57;2.20;;;;;;;;;;5078708;28;20445;-68
2023/07/06 08:17:52;;;;;;;6.00;2.17;;;;;;;;;;5085772;28;20736;-64
2023/07/06 08:20:17;;;;;;;4.90;2.08;;;;;;;;;;5087232;27;20030;-66
2023/07/06 08:22:46;;;;;;;5.60;1.97;;;;;;;;;;5087185;28;20094;-69
2023/07/06 08:25:14;;;;;;;6.65;2.20;;;;;;;;;;5091860;28;20060;-66
2023/07/06 08:27:39;;;;;;;4.78;2.38;;;;;;;;;;5081343;28;20088;-64
2023/07/06 08:30:06;;;;;;;6.13;2.70;;;;;;;;;;5089303;27;20497;-70
2023/07/06 08:32:33;;;;;;;8.13;3.53;;;;;;;;;;5088605;28;20084;-70
2023/07/06 08:35:01;;;;;;;8.10;3.33;;;;;;;;;;5084494;28;20024;-70
2023/07/06 08:37:27;;;;;;;6.68;3.30;;;;;;;;;;5082813;28;20047;-72
2023/07/06 08:39:52;;;;;;;7.07;3.33;;;;;;;;;;5093655;28;20648;-67
2023/07/06 08:42:18;;;;;;;6.57;3.42;;;;;;;;;;5087081;28;20034;-68
2023/07/06 08:44:54;;;;;;;6.63;3.50;;;;;;;;;;5085151;27;20537;-63
2023/07/06 08:47:21;;;;;;;7.50;3.78;;;;;;;;;;5089328;28;20454;-67
2023/07/06 08:49:46;;;;;;;8.32;3.75;;;;;;;;;;5085874;28;20579;-66
2023/07/06 08:52:12;;;;;;;7.23;3.70;;;;;;;;;;5085720;28;20110;-67
2023/07/06 08:54:39;;;;;;;7.88;3.83;;;;;;;;;;5080835;28;20257;-70
2023/07/06 08:57:25;;;;;;;6.88;3.42;;;;;;;;;;5090539;27;20019;-67
2023/07/06 08:59:52;;;;;;;8.48;3.88;;;;;;;;;;5083324;28;20032;-62
2023/07/06 09:02:18;;;;;;;6.45;3.75;;;;;;;;;;5088504;28;20786;-65
2023/07/06 09:04:43;;;;;;;8.32;3.78;;;;;;;;;;5083837;27;20019;-65
2023/07/06 09:07:13;;;;;;;7.47;3.70;;;;;;;;;;5089381;28;20066;-66
2023/07/06 09:09:47;;;;;;;6.72;3.42;;;;;;;;;;5077949;28;20034;-68
2023/07/06 09:12:17;;;;;;;7.65;3.42;;;;;;;;;;5084714;28;20051;-68
2023/07/06 09:14:43;;;;;;;6.68;3.13;;;;;;;;;;5089557;28;20019;-67
2023/07/06 09:17:14;;;;;;;8.25;2.90;;;;;;;;;;5081654;28;20062;-67
2023/07/06 09:19:42;;;;;;;8.15;3.28;;;;;;;;;;5089021;28;20518;-65
2023/07/06 09:22:09;;;;;;;6.70;3.20;;;;;;;;;;5083844;28;20027;-68
2023/07/06 09:24:36;;;;;;;5.93;2.72;;;;;;;;;;5091688;28;20015;-68
2023/07/06 09:27:16;;;;;;;6.20;3.35;;;;;;;;;;5087867;28;20024;-67
2023/07/06 09:29:42;;;;;;;5.88;2.55;;;;;;;;;;5091414;28;20833;-65
2023/07/06 09:32:11;;;;;;;5.10;2.20;;;;;;;;;;5092301;28;20022;-66
2023/07/06 09:34:44;;;;;;;5.88;2.20;;;;;;;;;;5080738;28;20027;-67
2023/07/06 09:37:17;;;;;;;5.55;1.70;;;;;;;;;;5089670;28;20016;-69
2023/07/06 09:39:55;;;;;;;4.45;1.90;;;;;;;;;;5085079;28;20062;-67
2023/07/06 09:42:23;;;;;;;4.95;2.20;;;;;;;;;;5078152;28;20028;-67
2023/07/06 09:44:50;;;;;;;5.20;1.90;;;;;;;;;;5089330;28;20552;-62
2023/07/06 09:47:15;;;;;;;4.90;1.75;;;;;;;;;;5080165;28;20086;-66
2023/07/06 09:49:44;;;;;;;4.43;1.77;;;;;;;;;;5091631;28;20471;-67
2023/07/06 09:52:11;;;;;;;4.47;1.70;;;;;;;;;;5084066;28;20571;-67
2023/07/06 09:55:07;;;;;;;4.30;1.63;;;;;;;;;;5088156;28;21037;-68
2023/07/06 09:57:38;;;;;;;4.50;1.50;;;;;;;;;;5077729;28;20740;-68
2023/07/06 10:00:12;;;;;;;4.50;1.67;;;;;;;;;;5088434;28;20020;-68
2023/07/06 10:02:47;;;;;;;3.80;1.48;;;;;;;;;;5088995;28;20338;-68
2023/07/06 10:05:12;;;;;;;3.63;1.52;;;;;;;;;;5081032;28;20023;-69
2023/07/06 10:07:56;;;;;;;4.10;1.43;;;;;;;;;;5094140;28;20094;-65
2023/07/06 10:10:21;;;;;;;4.88;1.65;;;;;;;;;;5083608;28;20024;-68
2023/07/06 10:12:58;;;;;;;4.83;1.77;;;;;;;;;;5084789;28;20068;-67
2023/07/06 10:15:32;;;;;;;4.60;1.70;;;;;;;;;;5084508;28;20026;-67
2023/07/06 10:18:02;;;;;;;4.95;1.90;;;;;;;;;;5080508;28;21200;-68
2023/07/06 10:20:48;;;;;;;4.10;1.60;;;;;;;;;;5090683;28;20048;-68
2023/07/06 10:23:14;;;;;;;4.13;1.75;;;;;;;;;;5089535;28;20036;-67
2023/07/06 10:25:44;;;;;;;6.27;1.90;;;;;;;;;;5086623;28;21392;-69
2023/07/06 10:28:18;;;;;;;4.78;1.70;;;;;;;;;;5080807;28;20168;-68
2023/07/06 10:30:45;;;;;;;4.20;1.50;;;;;;;;;;5084959;28;20044;-69
2023/07/06 10:33:21;;;;;;;4.38;1.80;;;;;;;;;;5086421;28;20027;-69
2023/07/06 10:35:50;;;;;;;4.35;1.80;;;;;;;;;;5087693;28;20030;-68
2023/07/06 10:38:16;;;;;;;4.18;1.65;;;;;;;;;;5084663;28;20024;-69
2023/07/06 10:40:42;;;;;;;5.80;1.50;;;;;;;;;;5089279;28;20119;-68
2023/07/06 10:43:07;;;;;;;4.18;1.90;;;;;;;;;;5091180;28;20032;-67
2023/07/06 10:45:38;;;;;;;4.30;1.67;;;;;;;;;;5067711;28;20737;-65
2023/07/06 10:48:27;;;;;;;4.30;1.80;;;;;;;;;;5095129;28;20735;-68
2023/07/06 10:50:58;;;;;;;6.68;1.83;;;;;;;;;;5077297;28;20604;-67
2023/07/06 10:53:33;;;;;;;5.78;1.80;;;;;;;;;;5088930;28;20035;-66
2023/07/06 10:56:01;;;;;;;5.13;1.92;;;;;;;;;;5082395;28;20016;-67
2023/07/06 10:58:27;;;;;;;5.00;1.77;;;;;;;;;;5084546;28;20474;-69
2023/07/06 11:00:53;;;;;;;5.45;1.80;;;;;;;;;;5089882;28;20032;-69
2023/07/06 11:03:28;;;;;;;4.63;1.77;;;;;;;;;;5086174;28;20031;-66
2023/07/06 11:05:55;;;;;;;5.88;1.75;;;;;;;;;;5087555;28;20028;-69
2023/07/06 11:08:45;;;;;;;4.40;1.75;;;;;;;;;;5077301;28;20032;-69
2023/07/06 11:11:20;;;;;;;4.45;1.90;;;;;;;;;;5057637;28;20084;-70
2023/07/06 11:13:55;;;;;;;5.18;1.77;;;;;;;;;;5087475;28;20019;-70
2023/07/06 11:16:23;;;;;;;4.20;1.88;;;;;;;;;;5085217;28;21226;-68
2023/07/06 11:18:55;;;;;;;5.60;1.85;;;;;;;;;;5074227;28;20805;-67
2023/07/06 11:21:36;;;;;;;4.40;1.73;;;;;;;;;;5089414;28;20115;-69
2023/07/06 11:24:06;;;;;;;6.80;2.00;;;;;;;;;;5090704;28;20016;-69
2023/07/06 11:26:38;;;;;;;4.25;1.65;;;;;;;;;;5090207;28;20016;-65
2023/07/06 11:29:08;;;;;;;5.05;2.10;;;;;;;;;;5083334;28;20058;-69
2023/07/06 11:31:33;;;;;;;6.82;2.10;;;;;;;;;;5092559;28;20819;-71
2023/07/06 11:34:17;;;;;;;5.90;1.97;;;;;;;;;;5081716;28;20119;-71
2023/07/06 11:37:03;;;;;;;4.78;2.15;;;;;;;;;;5085593;28;20081;-62
2023/07/06 11:39:31;;;;;;;4.30;1.77;;;;;;;;;;5061361;28;20040;-61
2023/07/06 11:42:02;;;;;;;5.18;2.22;;;;;;;;;;5099720;27;20031;-61
2023/07/06 11:44:28;;;;;;;5.43;2.33;;;;;;;;;;5091804;28;20149;-62
2023/07/06 11:47:16;;;;;;;5.18;1.92;;;;;;;;;;5088122;28;20016;-62
2023/07/06 11:49:53;;;;;;;4.95;2.40;;;;;;;;;;5092814;28;20080;-62
2023/07/06 11:52:24;;;;;;;5.80;2.33;;;;;;;;;;5077848;28;20032;-61
2023/07/06 11:55:05;;;;;;;5.32;2.42;;;;;;;;;;5086996;27;20049;-61
2023/07/06 11:57:44;;;;;;;6.70;2.60;;;;;;;;;;5091187;28;20122;-63
2023/07/06 12:02:55;;;;;;;5.85;2.55;;;;;;;;;;5097515;27;20536;-62
2023/07/06 12:05:23;;;;;;;6.82;2.95;;;;;;;;;;5086429;28;20020;-61
2023/07/06 12:07:56;;;;;;;5.60;2.35;;;;;;;;;;5090643;28;20462;-62
2023/07/06 12:10:22;;;;;;;6.20;2.50;;;;;;;;;;5082753;28;20125;-63
2023/07/06 12:12:47;;;;;;;7.13;2.83;;;;;;;;;;5092074;28;20028;-62
2023/07/06 12:15:16;;;;;;;10.23;3.47;;;;;;;;;;5081076;28;20057;-61
2023/07/06 12:17:43;;;;;;;6.88;2.95;;;;;;;;;;5088395;28;20052;-62
2023/07/06 12:20:10;;;;;;;8.20;2.65;;;;;;;;;;5084826;28;20073;-62
2023/07/06 12:22:48;;;;;;;7.65;2.20;;;;;;;;;;5096386;27;20031;-61
2023/07/06 12:25:18;;;;;;;5.38;2.58;;;;;;;;;;5085803;28;20026;-61
2023/07/06 12:27:45;;;;;;;5.43;2.50;;;;;;;;;;5083218;27;20016;-61
2023/07/06 12:30:12;;;;;;;4.72;2.42;;;;;;;;;;5088522;28;20027;-61
2023/07/06 12:32:37;;;;;;;6.20;2.38;;;;;;;;;;5089594;28;20020;-63
2023/07/06 12:35:04;;;;;;;6.53;2.50;;;;;;;;;;5084134;27;20020;-61
2023/07/06 12:37:30;;;;;;;5.47;2.63;;;;;;;;;;5092127;28;20284;-60
2023/07/06 12:39:55;;;;;;;5.88;2.80;;;;;;;;;;5084903;28;20107;-59
2023/07/06 12:42:21;;;;;;;6.53;2.65;;;;;;;;;;5091364;28;20073;-61
2023/07/06 12:44:50;;;;;;;7.28;2.58;;;;;;;;;;5096014;28;20454;-60
2023/07/06 12:47:22;;;;;;;5.40;2.67;;;;;;;;;;5101575;27;20019;-60
2023/07/06 12:49:49;;;;;;;6.38;3.03;;;;;;;;;;5095322;28;20035;-60
2023/07/06 12:52:15;;;;;;;6.47;2.88;;;;;;;;;;5088382;28;21520;-60
2023/07/06 12:54:49;;;;;;;6.72;3.00;;;;;;;;;;5086683;28;20077;-60
2023/07/06 12:57:18;;;;;;;7.95;2.80;;;;;;;;;;5092852;28;20089;-60
2023/07/06 12:59:44;;;;;;;7.38;2.80;;;;;;;;;;5084955;28;20131;-61
2023/07/06 13:02:17;;;;;;;6.73;3.30;;;;;;;;;;5087390;28;20068;-62
2023/07/06 13:04:47;;;;;;;6.50;2.88;;;;;;;;;;5086031;28;20259;-60
2023/07/06 13:07:17;;;;;;;6.35;2.70;;;;;;;;;;5087183;28;20077;-61
2023/07/06 13:09:42;;;;;;;;;;;;;;;;;;5089184;28;20023;-58
2023/07/06 13:12:09;;;;;;;6.13;2.42;;;;;;;;;;5085005;28;19914;-59
2023/07/06 13:14:39;;;;;;;6.25;2.30;;;;;;;;;;5088949;28;20016;-60
2023/07/06 13:17:13;;;;;;;5.57;2.20;;;;;;;;;;5085065;28;20146;-59
2023/07/06 13:19:38;;;;;;;5.40;2.10;;;;;;;;;;5078205;28;20030;-59
2023/07/06 13:22:04;;;;;;;6.15;2.70;;;;;;;;;;5083543;28;20032;-60
2023/07/06 13:24:40;;;;;;;6.18;2.47;;;;;;;;;;5076893;28;20285;-60
2023/07/06 13:27:06;;;;;;;7.47;3.00;;;;;;;;;;5070200;28;20043;-60
2023/07/06 13:29:34;;;;;;;7.38;2.60;;;;;;;;;;5078928;28;20024;-61
2023/07/06 13:32:00;;;;;;;8.18;2.80;;;;;;;;;;5076744;28;20765;-59
2023/07/06 13:34:25;;;;;;;5.80;2.60;;;;;;;;;;5075521;28;20549;-59
2023/07/06 13:36:51;;;;;;;7.18;2.60;;;;;;;;;;5078363;28;20020;-59
2023/07/06 13:39:17;;;;;;;7.28;2.78;;;;;;;;;;5073916;28;20736;-60
2023/07/06 13:41:42;;;;;;;6.13;2.40;;;;;;;;;;5081274;28;20029;-61
2023/07/06 13:44:08;;;;;;;5.93;2.53;;;;;;;;;;5078391;28;20254;-59
2023/07/06 13:46:36;;;;;;;5.47;2.30;;;;;;;;;;5077007;28;20250;-59
2023/07/06 13:49:01;;;;;;;7.55;2.55;;;;;;;;;;5080250;28;20035;-61
2023/07/06 13:51:28;;;;;;;6.65;2.60;;;;;;;;;;5081393;28;20078;-60
2023/07/06 13:53:54;;;;;;;6.30;2.63;;;;;;;;;;5075744;28;20424;-60
2023/07/06 13:56:20;;;;;;;6.65;2.13;;;;;;;;;;5075942;28;20026;-58
2023/07/06 13:58:46;;;;;;;7.15;2.50;;;;;;;;;;5063541;28;20361;-60
2023/07/06 14:01:12;;;;;;;8.98;2.40;;;;;;;;;;5073534;28;20134;-60
2023/07/06 14:03:38;;;;;;;5.68;2.53;;;;;;;;;;5073175;28;20143;-60
2023/07/06 14:06:06;;;;;;;5.53;2.30;;;;;;;;;;5080390;28;20024;-61
2023/07/06 14:08:34;;;;;;;6.63;2.70;;;;;;;;;;5077451;28;20760;-61
2023/07/06 14:11:02;;;;;;;5.13;2.30;;;;;;;;;;5087241;28;20061;-60
2023/07/06 14:13:30;;;;;;;5.28;2.20;;;;;;;;;;5081825;28;20042;-59
2023/07/06 14:15:56;;;;;;;6.53;2.50;;;;;;;;;;5077267;28;20033;-60
2023/07/06 14:18:23;;;;;;;5.55;2.30;;;;;;;;;;5082393;28;20364;-60
2023/07/06 14:20:49;;;;;;;5.75;2.20;;;;;;;;;;5080272;28;20047;-62
2023/07/06 14:23:15;;;;;;;6.95;2.28;;;;;;;;;;5076841;28;20015;-60
2023/07/06 14:25:42;;;;;;;5.70;2.35;;;;;;;;;;5078038;28;20051;-60
2023/07/06 14:28:08;;;;;;;5.40;2.03;;;;;;;;;;5076673;28;20057;-61
2023/07/06 14:30:35;;;;;;;6.03;2.22;;;;;;;;;;5071315;28;20015;-60
2023/07/06 14:33:02;;;;;;;4.95;2.05;;;;;;;;;;5074785;28;20110;-60
2023/07/06 14:35:28;;;;;;;5.93;2.60;;;;;;;;;;5074838;28;20024;-60
2023/07/06 14:37:55;;;;;;;8.77;2.50;;;;;;;;;;5076025;28;20565;-59
2023/07/06 14:40:21;;;;;;;5.82;2.20;;;;;;;;;;5077654;28;20040;-59
2023/07/06 14:42:51;;;;;;;5.90;2.35;;;;;;;;;;5075952;28;20062;-59
2023/07/06 14:45:17;;;;;;;5.43;2.40;;;;;;;;;;5076365;28;20077;-60
2023/07/06 14:47:42;;;;;;;6.53;2.38;;;;;;;;;;5078952;28;20114;-60
2023/07/06 14:50:09;;;;;;;5.93;2.38;;;;;;;;;;5086223;28;20041;-60
2023/07/06 14:52:38;;;;;;;5.32;2.30;;;;;;;;;;5078953;27;20019;-60